Time,TemperatureF,DewpointF,PressureIn,WindDirection,WindDirectionDegrees,WindSpeedMPH,WindSpeedGustMPH,Humidity,HourlyPrecipIn,Conditions,Clouds,dailyrainin,SoftwareType,DateUTC
2013-05-12 00:01:00,73.8,14.0,29.88,North,0,0.0,0.0,1,0.00,,,0.00,WUHU216HW,2013-05-12 04:01:00,
2013-05-12 00:02:00,73.8,14.0,29.88,North,0,0.0,0.0,1,0.00,,,0.00,WUHU216HW,2013-05-12 04:02:00,
2013-05-12 00:07:00,73.6,13.8,29.88,North,0,0.0,0.0,1,0.00,,,0.00,WUHU216HW,2013-05-12 04:07:00,
2013-05-12 00:12:00,73.6,13.8,29.87,North,0,0.0,0.0,1,0.00,,,0.00,WUHU216HW,2013-05-12 04:12:00,
2013-05-12 00:17:00,73.6,13.8,29.87,North,0,0.0,0.0,1,0.00,,,0.00,WUHU216HW,2013-05-12 04:17:00,
2013-05-12 00:22:00,73.6,13.8,29.87,North,0,0.0,0.0,1,0.00,,,0.00,WUHU216HW,2013-05-12 04:22:00,
2013-05-12 00:27:00,73.4,13.7,29.87,North,0,0.0,0.0,1,0.00,,,0.00,WUHU216HW,2013-05-12 04:27:00,
2013-05-12 00:32:00,73.4,13.7,29.87,North,0,0.0,0.0,1,0.00,,,0.00,WUHU216HW,2013-05-12 04:32:00,
2013-05-12 00:37:00,73.4,13.7,29.87,North,0,0.0,0.0,1,0.00,,,0.00,WUHU216HW,2013-05-12 04:37:00,
2013-05-12 00:42:00,73.4,13.7,29.87,North,0,0.0,0.0,1,0.00,,,0.00,WUHU216HW,2013-05-12 04:42:00,
2013-05-12 00:48:00,73.4,13.7,29.86,North,0,0.0,0.0,1,0.00,,,0.00,WUHU216HW,2013-05-12 04:48:00,
2013-05-12 00:53:00,73.4,13.7,29.86,North,0,0.0,0.0,1,0.00,,,0.00,WUHU216HW,2013-05-12 04:53:00,
2013-05-12 00:58:00,73.4,13.7,29.86,North,0,0.0,0.0,1,0.00,,,0.00,WUHU216HW,2013-05-12 04:58:00,
2013-05-12 01:03:00,73.3,13.5,29.86,North,0,0.0,0.0,1,0.00,,,0.00,WUHU216HW,2013-05-12 05:03:00,
2013-05-12 01:08:00,73.3,13.5,29.86,North,0,0.0,0.0,1,0.00,,,0.00,WUHU216HW,2013-05-12 05:08:00,
2013-05-12 01:13:00,73.1,13.4,29.86,North,0,0.0,0.0,1,0.00,,,0.00,WUHU216HW,2013-05-12 05:13:00,
2013-05-12 01:18:00,73.3,13.5,29.86,North,0,0.0,0.0,1,0.00,,,0.00,WUHU216HW,2013-05-12 05:18:00,
2013-05-12 01:22:00,73.1,13.4,29.86,North,0,0.0,0.0,1,0.00,,,0.00,WUHU216HW,2013-05-12 05:22:00,
2013-05-12 01:24:00,73.1,13.4,29.86,North,0,0.0,0.0,1,0.00,,,0.00,WUHU216HW,2013-05-12 05:24:00,
2013-05-12 01:29:00,73.1,13.4,29.86,North,0,0.0,0.0,1,0.00,,,0.00,WUHU216HW,2013-05-12 05:29:00,
2013-05-12 01:52:00,72.9,13.2,29.85,North,0,0.0,0.0,1,0.00,,,0.00,WUHU216HW,2013-05-12 05:52:00,
2013-05-12 01:57:00,72.9,13.2,29.85,North,0,0.0,0.0,1,0.00,,,0.00,WUHU216HW,2013-05-12 05:57:00,
2013-05-12 02:02:00,73.1,13.4,29.85,North,0,0.0,0.0,1,0.00,,,0.00,WUHU216HW,2013-05-12 06:02:00,
2013-05-12 02:07:00,73.1,13.4,29.85,North,0,0.0,0.0,1,0.00,,,0.00,WUHU216HW,2013-05-12 06:07:00,
2013-05-12 02:32:00,72.7,13.2,29.83,North,0,0.0,0.0,1,0.00,,,0.00,WUHU216HW,2013-05-12 06:32:00,
2013-05-12 02:37:00,72.7,13.2,29.84,North,0,0.0,0.0,1,0.00,,,0.00,WUHU216HW,2013-05-12 06:37:00,
2013-05-12 02:42:00,72.9,13.2,29.83,North,0,0.0,0.0,1,0.00,,,0.00,WUHU216HW,2013-05-12 06:42:00,
2013-05-12 02:47:00,72.7,13.2,29.83,North,0,0.0,0.0,1,0.00,,,0.00,WUHU216HW,2013-05-12 06:47:00,
2013-05-12 02:52:00,72.7,13.2,29.83,North,0,0.0,0.0,1,0.00,,,0.00,WUHU216HW,2013-05-12 06:52:00,
2013-05-12 02:58:00,72.7,13.2,29.83,North,0,0.0,0.0,1,0.00,,,0.00,WUHU216HW,2013-05-12 06:58:00,
2013-05-12 03:03:00,72.7,13.2,29.83,North,0,0.0,0.0,1,0.00,,,0.00,WUHU216HW,2013-05-12 07:03:00,
2013-05-12 03:08:00,72.7,13.2,29.83,North,0,0.0,0.0,1,0.00,,,0.00,WUHU216HW,2013-05-12 07:08:00,
2013-05-12 03:13:00,72.5,13.0,29.84,North,0,0.0,0.0,1,0.00,,,0.00,WUHU216HW,2013-05-12 07:13:00,
2013-05-12 03:18:00,72.5,13.0,29.84,North,0,0.0,0.0,1,0.00,,,0.00,WUHU216HW,2013-05-12 07:18:00,
2013-05-12 03:23:00,72.5,13.0,29.83,North,0,0.0,0.0,1,0.00,,,0.00,WUHU216HW,2013-05-12 07:23:00,
2013-05-12 03:28:00,72.7,13.2,29.83,North,0,0.0,0.0,1,0.00,,,0.00,WUHU216HW,2013-05-12 07:28:00,
2013-05-12 03:33:00,72.5,13.0,29.83,North,0,0.0,0.0,1,0.00,,,0.00,WUHU216HW,2013-05-12 07:33:00,
2013-05-12 03:39:00,72.4,12.8,29.83,North,0,0.0,0.0,1,0.00,,,0.00,WUHU216HW,2013-05-12 07:39:00,
2013-05-12 03:44:00,72.4,12.8,29.83,North,0,0.0,0.0,1,0.00,,,0.00,WUHU216HW,2013-05-12 07:44:00,
2013-05-12 03:49:00,72.4,12.8,29.82,North,0,0.0,0.0,1,0.00,,,0.00,WUHU216HW,2013-05-12 07:49:00,
2013-05-12 03:54:00,72.4,12.8,29.82,North,0,0.0,0.0,1,0.00,,,0.00,WUHU216HW,2013-05-12 07:54:00,
2013-05-12 03:59:00,72.4,12.8,29.82,North,0,0.0,0.0,1,0.00,,,0.00,WUHU216HW,2013-05-12 07:59:00,
2013-05-12 04:04:00,72.2,12.7,29.82,North,0,0.0,0.0,1,0.00,,,0.00,WUHU216HW,2013-05-12 08:04:00,
2013-05-12 04:09:00,72.2,12.7,29.82,North,0,0.0,0.0,1,0.00,,,0.00,WUHU216HW,2013-05-12 08:09:00,
2013-05-12 04:15:00,72.2,12.7,29.82,North,0,0.0,0.0,1,0.00,,,0.00,WUHU216HW,2013-05-12 08:15:00,
2013-05-12 04:20:00,72.2,12.7,29.82,North,0,0.0,0.0,1,0.00,,,0.00,WUHU216HW,2013-05-12 08:20:00,
2013-05-12 04:25:00,72.4,12.8,29.82,North,0,0.0,0.0,1,0.00,,,0.00,WUHU216HW,2013-05-12 08:25:00,
2013-05-12 04:30:00,72.4,12.8,29.82,North,0,0.0,0.0,1,0.00,,,0.00,WUHU216HW,2013-05-12 08:30:00,
2013-05-12 04:35:00,72.2,12.7,29.81,North,0,0.0,0.0,1,0.00,,,0.00,WUHU216HW,2013-05-12 08:35:00,
2013-05-12 04:40:00,72.0,12.5,29.81,North,0,0.0,0.0,1,0.00,,,0.00,WUHU216HW,2013-05-12 08:40:00,
2013-05-12 04:45:00,72.0,12.5,29.81,North,0,0.0,0.0,1,0.00,,,0.00,WUHU216HW,2013-05-12 08:45:00,
2013-05-12 04:50:00,72.0,12.5,29.81,North,0,0.0,0.0,1,0.00,,,0.00,WUHU216HW,2013-05-12 08:50:00,
2013-05-12 04:55:00,72.0,12.5,29.81,North,0,0.0,0.0,1,0.00,,,0.00,WUHU216HW,2013-05-12 08:55:00,
2013-05-12 05:00:00,72.0,12.5,29.81,North,0,0.0,0.0,1,0.00,,,0.00,WUHU216HW,2013-05-12 09:00:00,
2013-05-12 05:06:00,72.0,12.5,29.80,North,0,0.0,0.0,1,0.00,,,0.00,WUHU216HW,2013-05-12 09:06:00,
2013-05-12 05:11:00,72.0,12.5,29.80,North,0,0.0,0.0,1,0.00,,,0.00,WUHU216HW,2013-05-12 09:11:00,
2013-05-12 05:16:00,72.2,12.7,29.81,North,0,0.0,0.0,1,0.00,,,0.00,WUHU216HW,2013-05-12 09:16:00,
2013-05-12 05:21:00,72.2,12.7,29.80,North,0,0.0,0.0,1,0.00,,,0.00,WUHU216HW,2013-05-12 09:21:00,
2013-05-12 05:26:00,72.2,12.7,29.80,North,0,0.0,0.0,1,0.00,,,0.00,WUHU216HW,2013-05-12 09:26:00,
2013-05-12 05:31:00,72.0,12.5,29.80,North,0,0.0,0.0,1,0.00,,,0.00,WUHU216HW,2013-05-12 09:31:00,
2013-05-12 05:36:00,72.0,12.5,29.80,North,0,0.0,0.0,1,0.00,,,0.00,WUHU216HW,2013-05-12 09:36:00,
2013-05-12 05:41:00,71.6,12.2,29.80,North,0,0.0,0.0,1,0.00,,,0.00,WUHU216HW,2013-05-12 09:41:00,
2013-05-12 05:47:00,71.6,12.2,29.80,North,0,0.0,0.0,1,0.00,,,0.00,WUHU216HW,2013-05-12 09:47:00,
2013-05-12 05:52:00,71.6,12.2,29.81,North,0,0.0,0.0,1,0.00,,,0.00,WUHU216HW,2013-05-12 09:52:00,
2013-05-12 05:57:00,71.5,12.1,29.80,North,0,0.0,0.0,1,0.00,,,0.00,WUHU216HW,2013-05-12 09:57:00,
2013-05-12 06:02:00,71.5,12.1,29.81,North,0,0.0,0.0,1,0.00,,,0.00,WUHU216HW,2013-05-12 10:02:00,
2013-05-12 06:03:00,71.5,12.1,29.81,North,0,0.0,0.0,1,0.00,,,0.00,WUHU216HW,2013-05-12 10:03:00,
2013-05-12 06:07:00,71.5,12.1,29.81,North,0,0.0,0.0,1,0.00,,,0.00,WUHU216HW,2013-05-12 10:07:00,
2013-05-12 06:12:00,71.5,12.1,29.81,North,0,0.0,0.0,1,0.00,,,0.00,WUHU216HW,2013-05-12 10:12:00,
2013-05-12 06:33:00,71.3,12.0,29.82,North,0,0.0,0.0,1,0.00,,,0.00,WUHU216HW,2013-05-12 10:33:00,
2013-05-12 06:38:00,71.3,12.0,29.82,North,0,0.0,0.0,1,0.00,,,0.00,WUHU216HW,2013-05-12 10:38:00,
2013-05-12 06:43:00,71.3,12.0,29.82,North,0,0.0,0.0,1,0.00,,,0.00,WUHU216HW,2013-05-12 10:43:00,
2013-05-12 06:48:00,71.3,12.0,29.82,North,0,0.0,0.0,1,0.00,,,0.00,WUHU216HW,2013-05-12 10:48:00,
2013-05-12 06:53:00,71.3,12.0,29.82,North,0,0.0,0.0,1,0.00,,,0.00,WUHU216HW,2013-05-12 10:53:00,
2013-05-12 06:58:00,71.3,12.0,29.82,North,0,0.0,0.0,1,0.00,,,0.00,WUHU216HW,2013-05-12 10:58:00,
2013-05-12 07:03:00,71.5,12.1,29.83,North,0,0.0,0.0,1,0.00,,,0.00,WUHU216HW,2013-05-12 11:03:00,
2013-05-12 07:08:00,71.6,12.2,29.83,North,0,0.0,0.0,1,0.00,,,0.00,WUHU216HW,2013-05-12 11:08:00,
2013-05-12 07:14:00,71.5,12.1,29.83,North,0,0.0,0.0,1,0.00,,,0.00,WUHU216HW,2013-05-12 11:14:00,
2013-05-12 07:19:00,71.5,12.1,29.83,North,0,0.0,0.0,1,0.00,,,0.00,WUHU216HW,2013-05-12 11:19:00,
2013-05-12 07:24:00,71.6,12.2,29.83,North,0,0.0,0.0,1,0.00,,,0.00,WUHU216HW,2013-05-12 11:24:00,
2013-05-12 07:29:00,71.8,12.4,29.83,North,0,0.0,0.0,1,0.00,,,0.00,WUHU216HW,2013-05-12 11:29:00,
2013-05-12 07:34:00,72.4,12.8,29.83,North,0,0.0,0.0,1,0.00,,,0.00,WUHU216HW,2013-05-12 11:34:00,
2013-05-12 07:39:00,73.1,13.4,29.83,North,0,0.0,0.0,1,0.00,,,0.00,WUHU216HW,2013-05-12 11:39:00,
2013-05-12 07:44:00,73.4,13.7,29.83,North,0,0.0,0.0,1,0.00,,,0.00,WUHU216HW,2013-05-12 11:44:00,
2013-05-12 07:49:00,73.8,14.0,29.84,North,0,0.0,0.0,1,0.00,,,0.00,WUHU216HW,2013-05-12 11:49:00,
2013-05-12 07:54:00,74.2,14.2,29.84,North,0,0.0,0.0,1,0.00,,,0.00,WUHU216HW,2013-05-12 11:54:00,
2013-05-12 08:00:00,74.2,14.2,29.84,North,0,0.0,0.0,1,0.00,,,0.00,WUHU216HW,2013-05-12 12:00:00,
2013-05-12 08:05:00,74.0,14.0,29.84,North,0,0.0,0.0,1,0.00,,,0.00,WUHU216HW,2013-05-12 12:05:00,
2013-05-12 08:10:00,74.0,14.0,29.84,North,0,0.0,0.0,1,0.00,,,0.00,WUHU216HW,2013-05-12 12:10:00,
2013-05-12 08:15:00,74.0,14.0,29.84,North,0,0.0,0.0,1,0.00,,,0.00,WUHU216HW,2013-05-12 12:15:00,
2013-05-12 08:20:00,74.2,14.2,29.84,North,0,0.0,0.0,1,0.00,,,0.00,WUHU216HW,2013-05-12 12:20:00,
2013-05-12 08:25:00,74.2,14.2,29.85,North,0,0.0,0.0,1,0.00,,,0.00,WUHU216HW,2013-05-12 12:25:00,
2013-05-12 08:30:00,74.5,14.4,29.85,North,0,0.0,0.0,1,0.00,,,0.00,WUHU216HW,2013-05-12 12:30:00,
2013-05-12 08:35:00,74.7,14.6,29.85,North,0,0.0,0.0,1,0.00,,,0.00,WUHU216HW,2013-05-12 12:35:00,
2013-05-12 08:41:00,76.0,15.5,29.86,North,0,0.0,0.0,1,0.00,,,0.00,WUHU216HW,2013-05-12 12:41:00,
2013-05-12 08:46:00,77.4,16.7,29.86,North,0,0.0,0.0,1,0.00,,,0.00,WUHU216HW,2013-05-12 12:46:00,
2013-05-12 08:51:00,76.7,16.1,29.86,North,0,0.0,0.0,1,0.00,,,0.00,WUHU216HW,2013-05-12 12:51:00,
2013-05-12 08:56:00,76.1,15.7,29.86,North,0,0.0,0.0,1,0.00,,,0.00,WUHU216HW,2013-05-12 12:56:00,
2013-05-12 09:01:00,76.7,16.1,29.86,North,0,0.0,0.0,1,0.00,,,0.00,WUHU216HW,2013-05-12 13:01:00,
2013-05-12 09:06:00,77.8,16.9,29.86,North,0,0.0,0.0,1,0.00,,,0.00,WUHU216HW,2013-05-12 13:06:00,
2013-05-12 09:11:00,77.0,16.4,29.87,North,0,0.0,0.0,1,0.00,,,0.00,WUHU216HW,2013-05-12 13:11:00,
2013-05-12 09:16:00,76.5,15.9,29.86,North,0,0.0,0.0,1,0.00,,,0.00,WUHU216HW,2013-05-12 13:16:00,
2013-05-12 09:22:00,76.5,15.9,29.87,North,0,0.0,0.0,1,0.00,,,0.00,WUHU216HW,2013-05-12 13:22:00,
2013-05-12 09:27:00,77.0,16.4,29.86,North,0,0.0,0.0,1,0.00,,,0.00,WUHU216HW,2013-05-12 13:27:00,
2013-05-12 09:32:00,77.8,16.9,29.86,North,0,0.0,0.0,1,0.00,,,0.00,WUHU216HW,2013-05-12 13:32:00,
2013-05-12 09:37:00,77.4,16.7,29.86,North,0,0.0,0.0,1,0.00,,,0.00,WUHU216HW,2013-05-12 13:37:00,
2013-05-12 09:42:00,76.9,16.2,29.86,North,0,0.0,0.0,1,0.00,,,0.00,WUHU216HW,2013-05-12 13:42:00,
2013-05-12 09:47:00,76.9,16.2,29.86,North,0,0.0,0.0,1,0.00,,,0.00,WUHU216HW,2013-05-12 13:47:00,
2013-05-12 09:52:00,77.9,17.0,29.86,North,0,0.0,0.0,1,0.00,,,0.00,WUHU216HW,2013-05-12 13:52:00,
2013-05-12 09:57:00,77.6,16.7,29.86,North,0,0.0,0.0,1,0.00,,,0.00,WUHU216HW,2013-05-12 13:57:00,
2013-05-12 10:03:00,77.8,16.9,29.86,North,0,0.0,0.0,1,0.00,,,0.00,WUHU216HW,2013-05-12 14:03:00,
2013-05-12 10:08:00,78.3,17.3,29.86,North,0,0.0,0.0,1,0.00,,,0.00,WUHU216HW,2013-05-12 14:08:00,
2013-05-12 10:13:00,77.9,17.0,29.86,North,0,0.0,0.0,1,0.00,,,0.00,WUHU216HW,2013-05-12 14:13:00,
2013-05-12 10:18:00,77.8,16.9,29.86,North,0,0.0,0.0,1,0.00,,,0.00,WUHU216HW,2013-05-12 14:18:00,
2013-05-12 10:23:00,77.8,16.9,29.86,North,0,0.0,0.0,1,0.00,,,0.00,WUHU216HW,2013-05-12 14:23:00,
2013-05-12 10:28:00,77.9,17.0,29.86,North,0,0.0,0.0,1,0.00,,,0.00,WUHU216HW,2013-05-12 14:28:00,
2013-05-12 10:33:00,78.1,17.1,29.86,North,0,0.0,0.0,1,0.00,,,0.00,WUHU216HW,2013-05-12 14:33:00,
2013-05-12 10:39:00,78.7,17.6,29.86,North,0,0.0,0.0,1,0.00,,,0.00,WUHU216HW,2013-05-12 14:39:00,
2013-05-12 10:44:00,79.2,17.9,29.86,North,0,0.0,0.0,1,0.00,,,0.00,WUHU216HW,2013-05-12 14:44:00,
2013-05-12 10:49:00,79.4,18.1,29.86,North,0,0.0,0.0,1,0.00,,,0.00,WUHU216HW,2013-05-12 14:49:00,
2013-05-12 10:54:00,79.0,17.8,29.86,North,0,0.0,0.0,1,0.00,,,0.00,WUHU216HW,2013-05-12 14:54:00,
2013-05-12 10:59:00,78.5,17.4,29.86,North,0,0.0,0.0,1,0.00,,,0.00,WUHU216HW,2013-05-12 14:59:00,
2013-05-12 11:04:00,78.8,17.6,29.86,North,0,0.0,0.0,1,0.00,,,0.00,WUHU216HW,2013-05-12 15:04:00,
2013-05-12 11:09:00,80.1,18.6,29.86,North,0,0.0,0.0,1,0.00,,,0.00,WUHU216HW,2013-05-12 15:09:00,
2013-05-12 11:14:00,80.1,18.6,29.86,North,0,0.0,0.0,1,0.00,,,0.00,WUHU216HW,2013-05-12 15:14:00,
2013-05-12 11:39:00,79.4,37.0,29.86,North,0,0.0,0.0,22,0.00,,,0.00,WUHU216HW,2013-05-12 15:39:00,
2013-05-12 11:44:00,80.1,28.8,29.86,North,0,0.0,0.0,16,0.00,,,0.00,WUHU216HW,2013-05-12 15:44:00,
2013-05-12 11:49:00,80.3,22.1,29.86,North,0,0.0,0.0,12,0.00,,,0.00,WUHU216HW,2013-05-12 15:49:00,
2013-05-12 11:54:00,78.8,22.7,29.86,North,0,0.0,0.0,13,0.00,,,0.00,WUHU216HW,2013-05-12 15:54:00,
2013-05-12 11:59:00,78.3,17.3,29.86,North,0,0.0,0.0,8,0.00,,,0.00,WUHU216HW,2013-05-12 15:59:00,
2013-05-12 12:04:00,78.8,17.6,29.86,North,0,0.0,0.0,7,0.00,,,0.00,WUHU216HW,2013-05-12 16:04:00,
2013-05-12 12:10:00,79.4,19.7,29.86,North,0,0.0,0.0,11,0.00,,,0.00,WUHU216HW,2013-05-12 16:10:00,
2013-05-12 12:15:00,79.9,18.6,29.86,North,0,0.0,0.0,8,0.00,,,0.00,WUHU216HW,2013-05-12 16:15:00,
2013-05-12 12:20:00,81.2,43.9,29.86,North,0,0.0,0.0,27,0.00,,,0.00,WUHU216HW,2013-05-12 16:20:00,
2013-05-12 12:25:00,81.0,46.7,29.86,North,0,0.0,0.0,30,0.00,,,0.00,WUHU216HW,2013-05-12 16:25:00,
2013-05-12 12:30:00,81.0,41.5,29.86,North,0,0.0,0.0,25,0.00,,,0.00,WUHU216HW,2013-05-12 16:30:00,
2013-05-12 12:35:00,81.5,50.3,29.86,North,0,0.0,0.0,34,0.00,,,0.00,WUHU216HW,2013-05-12 16:35:00,
2013-05-12 12:40:00,80.1,44.9,29.86,North,0,0.0,0.0,29,0.00,,,0.00,WUHU216HW,2013-05-12 16:40:00,
2013-05-12 12:45:00,79.6,44.5,29.86,North,0,0.0,0.0,29,0.00,,,0.00,WUHU216HW,2013-05-12 16:45:00,
2013-05-12 12:51:00,79.4,46.9,29.86,North,0,0.0,0.0,32,0.00,,,0.00,WUHU216HW,2013-05-12 16:51:00,
2013-05-12 12:56:00,79.9,43.8,29.86,North,0,0.0,0.0,28,0.00,,,0.00,WUHU216HW,2013-05-12 16:56:00,
2013-05-12 13:01:00,81.4,50.1,29.86,North,0,0.0,0.0,34,0.00,,,0.00,WUHU216HW,2013-05-12 17:01:00,
2013-05-12 13:06:00,81.9,49.8,29.86,North,0,0.0,0.0,33,0.00,,,0.00,WUHU216HW,2013-05-12 17:06:00,
2013-05-12 13:11:00,82.4,55.0,29.86,North,0,0.0,0.0,39,0.00,,,0.00,WUHU216HW,2013-05-12 17:11:00,
2013-05-12 13:16:00,81.9,55.9,29.86,North,0,0.0,0.0,41,0.00,,,0.00,WUHU216HW,2013-05-12 17:16:00,
2013-05-12 13:21:00,80.8,52.0,29.86,North,0,0.0,0.0,37,0.00,,,0.00,WUHU216HW,2013-05-12 17:21:00,
2013-05-12 13:26:00,81.5,46.1,29.86,North,0,0.0,0.0,29,0.00,,,0.00,WUHU216HW,2013-05-12 17:26:00,
2013-05-12 13:32:00,83.3,39.3,29.86,North,0,0.0,0.0,21,0.00,,,0.00,WUHU216HW,2013-05-12 17:32:00,
2013-05-12 13:37:00,84.6,42.4,29.86,North,0,0.0,0.0,23,0.00,,,0.00,WUHU216HW,2013-05-12 17:37:00,
2013-05-12 13:42:00,85.3,52.0,29.86,North,0,0.0,0.0,32,0.00,,,0.00,WUHU216HW,2013-05-12 17:42:00,
2013-05-12 13:47:00,85.7,61.8,29.85,North,0,0.0,0.0,45,0.00,,,0.00,WUHU216HW,2013-05-12 17:47:00,
2013-05-12 13:52:00,84.1,59.1,29.86,North,0,0.0,0.0,43,0.00,,,0.00,WUHU216HW,2013-05-12 17:52:00,
2013-05-12 13:57:00,81.9,57.2,29.86,North,0,0.0,0.0,43,0.00,,,0.00,WUHU216HW,2013-05-12 17:57:00,
2013-05-12 14:02:00,81.0,55.1,29.86,North,0,0.0,0.0,41,0.00,,,0.00,WUHU216HW,2013-05-12 18:02:00,
2013-05-12 14:08:00,82.1,57.3,29.86,North,0,0.0,0.0,43,0.00,,,0.00,WUHU216HW,2013-05-12 18:08:00,
2013-05-12 14:13:00,83.2,59.0,29.86,North,0,0.0,0.0,44,0.00,,,0.00,WUHU216HW,2013-05-12 18:13:00,
2013-05-12 14:18:00,83.5,59.2,29.86,North,0,0.0,0.0,44,0.00,,,0.00,WUHU216HW,2013-05-12 18:18:00,
2013-05-12 14:23:00,81.7,57.6,29.86,North,0,0.0,0.0,44,0.00,,,0.00,WUHU216HW,2013-05-12 18:23:00,
2013-05-12 14:28:00,81.7,57.6,29.86,North,0,0.0,0.0,44,0.00,,,0.00,WUHU216HW,2013-05-12 18:28:00,
2013-05-12 14:33:00,82.6,58.4,29.86,North,0,0.0,0.0,44,0.00,,,0.00,WUHU216HW,2013-05-12 18:33:00,
2013-05-12 14:38:00,83.3,59.8,29.85,North,0,0.0,0.0,45,0.00,,,0.00,WUHU216HW,2013-05-12 18:38:00,
2013-05-12 14:43:00,83.9,59.6,29.85,North,0,0.0,0.0,44,0.00,,,0.00,WUHU216HW,2013-05-12 18:43:00,
2013-05-12 14:49:00,82.4,58.9,29.85,North,0,0.0,0.0,45,0.00,,,0.00,WUHU216HW,2013-05-12 18:49:00,
2013-05-12 14:54:00,81.5,58.1,29.85,North,0,0.0,0.0,45,0.00,,,0.00,WUHU216HW,2013-05-12 18:54:00,
2013-05-12 14:59:00,81.9,57.8,29.85,North,0,0.0,0.0,44,0.00,,,0.00,WUHU216HW,2013-05-12 18:59:00,
2013-05-12 15:04:00,84.2,60.6,29.85,North,0,0.0,0.0,45,0.00,,,0.00,WUHU216HW,2013-05-12 19:04:00,
2013-05-12 15:09:00,84.8,59.8,29.85,North,0,0.0,0.0,43,0.00,,,0.00,WUHU216HW,2013-05-12 19:09:00,
2013-05-12 15:14:00,84.2,58.1,29.85,North,0,0.0,0.0,41,0.00,,,0.00,WUHU216HW,2013-05-12 19:14:00,
2013-05-12 15:19:00,83.3,59.1,29.85,North,0,0.0,0.0,44,0.00,,,0.00,WUHU216HW,2013-05-12 19:19:00,
2013-05-12 15:24:00,82.6,58.4,29.85,North,0,0.0,0.0,44,0.00,,,0.00,WUHU216HW,2013-05-12 19:24:00,
2013-05-12 15:30:00,83.7,58.1,29.85,North,0,0.0,0.0,42,0.00,,,0.00,WUHU216HW,2013-05-12 19:30:00,
2013-05-12 15:35:00,84.1,57.9,29.85,North,0,0.0,0.0,41,0.00,,,0.00,WUHU216HW,2013-05-12 19:35:00,
2013-05-12 15:40:00,83.7,57.0,29.85,North,0,0.0,0.0,40,0.00,,,0.00,WUHU216HW,2013-05-12 19:40:00,
2013-05-12 15:45:00,84.1,57.2,29.85,North,0,0.0,0.0,40,0.00,,,0.00,WUHU216HW,2013-05-12 19:45:00,
2013-05-12 15:50:00,83.5,56.8,29.85,North,0,0.0,0.0,40,0.00,,,0.00,WUHU216HW,2013-05-12 19:50:00,
2013-05-12 15:55:00,82.8,54.5,29.85,North,0,0.0,0.0,38,0.00,,,0.00,WUHU216HW,2013-05-12 19:55:00,
2013-05-12 16:00:00,83.3,55.8,29.85,North,0,0.0,0.0,39,0.00,,,0.00,WUHU216HW,2013-05-12 20:00:00,
2013-05-12 16:05:00,84.8,61.7,29.85,North,0,0.0,0.0,46,0.00,,,0.00,WUHU216HW,2013-05-12 20:05:00,
2013-05-12 16:10:00,84.1,56.4,29.85,North,0,0.0,0.0,39,0.00,,,0.00,WUHU216HW,2013-05-12 20:10:00,
2013-05-12 16:15:00,83.7,61.3,29.85,North,0,0.0,0.0,47,0.00,,,0.00,WUHU216HW,2013-05-12 20:15:00,
2013-05-12 16:21:00,82.6,61.5,29.85,North,0,0.0,0.0,49,0.00,,,0.00,WUHU216HW,2013-05-12 20:21:00,
2013-05-12 16:26:00,82.8,62.3,29.85,North,0,0.0,0.0,50,0.00,,,0.00,WUHU216HW,2013-05-12 20:26:00,
2013-05-12 16:31:00,82.6,62.7,29.85,North,0,0.0,0.0,51,0.00,,,0.00,WUHU216HW,2013-05-12 20:31:00,
2013-05-12 16:36:00,83.0,63.0,29.85,North,0,0.0,0.0,51,0.00,,,0.00,WUHU216HW,2013-05-12 20:36:00,
2013-05-12 16:41:00,83.2,62.6,29.85,North,0,0.0,0.0,50,0.00,,,0.00,WUHU216HW,2013-05-12 20:41:00,
2013-05-12 16:46:00,82.4,58.2,29.85,North,0,0.0,0.0,44,0.00,,,0.00,WUHU216HW,2013-05-12 20:46:00,
2013-05-12 16:51:00,82.4,55.8,29.85,North,0,0.0,0.0,40,0.00,,,0.00,WUHU216HW,2013-05-12 20:51:00,
2013-05-12 16:57:00,83.3,52.7,29.85,North,0,0.0,0.0,35,0.00,,,0.00,WUHU216HW,2013-05-12 20:57:00,
2013-05-12 17:02:00,84.1,54.1,29.85,North,0,0.0,0.0,36,0.00,,,0.00,WUHU216HW,2013-05-12 21:02:00,
2013-05-12 17:07:00,83.9,54.7,29.85,North,0,0.0,0.0,37,0.00,,,0.00,WUHU216HW,2013-05-12 21:07:00,
2013-05-12 17:12:00,83.2,58.3,29.86,North,0,0.0,0.0,43,0.00,,,0.00,WUHU216HW,2013-05-12 21:12:00,
2013-05-12 17:17:00,84.4,61.4,29.86,North,0,0.0,0.0,46,0.00,,,0.00,WUHU216HW,2013-05-12 21:17:00,
2013-05-12 17:22:00,84.2,61.8,29.86,North,0,0.0,0.0,47,0.00,,,0.00,WUHU216HW,2013-05-12 21:22:00,
2013-05-12 17:27:00,83.9,61.5,29.86,North,0,0.0,0.0,47,0.00,,,0.00,WUHU216HW,2013-05-12 21:27:00,
2013-05-12 17:32:00,82.8,55.4,29.86,North,0,0.0,0.0,39,0.00,,,0.00,WUHU216HW,2013-05-12 21:32:00,
2013-05-12 17:35:00,82.8,54.5,29.86,North,0,0.0,0.0,38,0.00,,,0.00,WUHU216HW,2013-05-12 21:35:00,
2013-05-12 17:38:00,82.8,54.5,29.86,North,0,0.0,0.0,38,0.00,,,0.00,WUHU216HW,2013-05-12 21:38:00,
2013-05-12 17:43:00,82.8,54.5,29.86,North,0,0.0,0.0,38,0.00,,,0.00,WUHU216HW,2013-05-12 21:43:00,
2013-05-12 18:00:00,84.8,59.1,29.86,North,0,0.0,0.0,42,0.00,,,0.00,WUHU216HW,2013-05-12 22:00:00,
2013-05-12 18:05:00,84.6,53.8,29.86,North,0,0.0,0.0,35,0.00,,,0.00,WUHU216HW,2013-05-12 22:05:00,
2013-05-12 18:10:00,84.4,53.7,29.87,North,0,0.0,0.0,35,0.00,,,0.00,WUHU216HW,2013-05-12 22:10:00,
2013-05-12 18:15:00,83.9,54.7,29.87,North,0,0.0,0.0,37,0.00,,,0.00,WUHU216HW,2013-05-12 22:15:00,
2013-05-12 18:20:00,84.2,55.8,29.88,North,0,0.0,0.0,38,0.00,,,0.00,WUHU216HW,2013-05-12 22:20:00,
2013-05-12 18:25:00,84.6,53.0,29.87,North,0,0.0,0.0,34,0.00,,,0.00,WUHU216HW,2013-05-12 22:25:00,
2013-05-12 18:30:00,84.8,61.0,29.88,North,0,0.0,0.0,45,0.00,,,0.00,WUHU216HW,2013-05-12 22:30:00,
2013-05-12 18:36:00,84.6,64.1,29.87,North,0,0.0,0.0,50,0.00,,,0.00,WUHU216HW,2013-05-12 22:36:00,
2013-05-12 18:41:00,84.1,64.1,29.87,North,0,0.0,0.0,51,0.00,,,0.00,WUHU216HW,2013-05-12 22:41:00,
2013-05-12 18:46:00,83.3,63.9,29.87,North,0,0.0,0.0,52,0.00,,,0.00,WUHU216HW,2013-05-12 22:46:00,
2013-05-12 18:51:00,82.8,63.8,29.88,North,0,0.0,0.0,53,0.00,,,0.00,WUHU216HW,2013-05-12 22:51:00,
2013-05-12 18:56:00,82.6,63.6,29.88,North,0,0.0,0.0,53,0.00,,,0.00,WUHU216HW,2013-05-12 22:56:00,
2013-05-12 19:01:00,82.6,64.2,29.88,North,0,0.0,0.0,54,0.00,,,0.00,WUHU216HW,2013-05-12 23:01:00,
2013-05-12 19:06:00,82.1,63.7,29.88,North,0,0.0,0.0,54,0.00,,,0.00,WUHU216HW,2013-05-12 23:06:00,
2013-05-12 19:11:00,81.0,62.7,29.88,North,0,0.0,0.0,54,0.00,,,0.00,WUHU216HW,2013-05-12 23:11:00,
2013-05-12 19:17:00,80.6,61.4,29.88,North,0,0.0,0.0,52,0.00,,,0.00,WUHU216HW,2013-05-12 23:17:00,
2013-05-12 19:22:00,80.1,60.8,29.89,North,0,0.0,0.0,52,0.00,,,0.00,WUHU216HW,2013-05-12 23:22:00,
2013-05-12 19:27:00,79.6,58.7,29.90,North,0,0.0,0.0,49,0.00,,,0.00,WUHU216HW,2013-05-12 23:27:00,
2013-05-12 19:32:00,78.8,58.1,29.90,North,0,0.0,0.0,49,0.00,,,0.00,WUHU216HW,2013-05-12 23:32:00,
2013-05-12 19:37:00,78.1,51.9,29.90,North,0,0.0,0.0,40,0.00,,,0.00,WUHU216HW,2013-05-12 23:37:00,
2013-05-12 19:42:00,77.4,38.7,29.90,North,0,0.0,0.0,25,0.00,,,0.00,WUHU216HW,2013-05-12 23:42:00,
2013-05-12 19:47:00,76.7,36.8,29.90,North,0,0.0,0.0,24,0.00,,,0.00,WUHU216HW,2013-05-12 23:47:00,
2013-05-12 19:52:00,76.3,33.4,29.91,North,0,0.0,0.0,21,0.00,,,0.00,WUHU216HW,2013-05-12 23:52:00,
2013-05-12 19:57:00,76.1,15.7,29.91,North,0,0.0,0.0,1,0.00,,,0.00,WUHU216HW,2013-05-12 23:57:00,
2013-05-12 20:03:00,76.0,15.5,29.91,North,0,0.0,0.0,1,0.00,,,0.00,WUHU216HW,2013-05-13 00:03:00,
2013-05-12 20:08:00,75.6,15.2,29.91,North,0,0.0,0.0,1,0.00,,,0.00,WUHU216HW,2013-05-13 00:08:00,
2013-05-12 20:13:00,75.2,14.9,29.91,North,0,0.0,0.0,1,0.00,,,0.00,WUHU216HW,2013-05-13 00:13:00,
2013-05-12 20:18:00,75.2,14.9,29.91,North,0,0.0,0.0,1,0.00,,,0.00,WUHU216HW,2013-05-13 00:18:00,
2013-05-12 20:23:00,75.1,14.9,29.91,North,0,0.0,0.0,1,0.00,,,0.00,WUHU216HW,2013-05-13 00:23:00,
2013-05-12 20:28:00,74.9,14.7,29.91,North,0,0.0,0.0,1,0.00,,,0.00,WUHU216HW,2013-05-13 00:28:00,
2013-05-12 20:33:00,74.7,14.6,29.92,North,0,0.0,0.0,1,0.00,,,0.00,WUHU216HW,2013-05-13 00:33:00,
2013-05-12 20:38:00,74.5,14.4,29.92,North,0,0.0,0.0,1,0.00,,,0.00,WUHU216HW,2013-05-13 00:38:00,
2013-05-12 20:44:00,74.5,14.4,29.92,North,0,0.0,0.0,1,0.00,,,0.00,WUHU216HW,2013-05-13 00:44:00,
2013-05-12 20:49:00,74.3,14.3,29.92,North,0,0.0,0.0,1,0.00,,,0.00,WUHU216HW,2013-05-13 00:49:00,
2013-05-12 20:54:00,74.2,14.2,29.92,North,0,0.0,0.0,1,0.00,,,0.00,WUHU216HW,2013-05-13 00:54:00,
2013-05-12 20:59:00,74.0,14.0,29.93,North,0,0.0,0.0,1,0.00,,,0.00,WUHU216HW,2013-05-13 00:59:00,
2013-05-12 21:04:00,73.8,14.0,29.93,North,0,0.0,0.0,1,0.00,,,0.00,WUHU216HW,2013-05-13 01:04:00,
2013-05-12 21:09:00,73.8,14.0,29.93,North,0,0.0,0.0,1,0.00,,,0.00,WUHU216HW,2013-05-13 01:09:00,
2013-05-12 21:14:00,73.6,13.8,29.93,North,0,0.0,0.0,1,0.00,,,0.00,WUHU216HW,2013-05-13 01:14:00,
2013-05-12 21:19:00,73.4,13.7,29.93,North,0,0.0,0.0,1,0.00,,,0.00,WUHU216HW,2013-05-13 01:19:00,
2013-05-12 21:24:00,73.4,13.7,29.94,North,0,0.0,0.0,1,0.00,,,0.00,WUHU216HW,2013-05-13 01:24:00,
2013-05-12 21:30:00,73.3,13.5,29.94,North,0,0.0,0.0,1,0.00,,,0.00,WUHU216HW,2013-05-13 01:30:00,
2013-05-12 21:35:00,73.3,13.5,29.94,North,0,0.0,0.0,1,0.00,,,0.00,WUHU216HW,2013-05-13 01:35:00,
2013-05-12 21:40:00,73.1,13.4,29.94,North,0,0.0,0.0,1,0.00,,,0.00,WUHU216HW,2013-05-13 01:40:00,
2013-05-12 21:45:00,73.1,13.4,29.95,North,0,0.0,0.0,1,0.00,,,0.00,WUHU216HW,2013-05-13 01:45:00,
2013-05-12 21:50:00,72.9,13.2,29.95,North,0,0.0,0.0,1,0.00,,,0.00,WUHU216HW,2013-05-13 01:50:00,
2013-05-12 21:55:00,72.9,13.2,29.95,North,0,0.0,0.0,1,0.00,,,0.00,WUHU216HW,2013-05-13 01:55:00,
2013-05-12 22:00:00,72.7,13.2,29.95,North,0,0.0,0.0,1,0.00,,,0.00,WUHU216HW,2013-05-13 02:00:00,
2013-05-12 22:05:00,72.5,13.0,29.95,North,0,0.0,0.0,1,0.00,,,0.00,WUHU216HW,2013-05-13 02:05:00,
2013-05-12 22:11:00,72.2,12.7,29.96,North,0,0.0,0.0,1,0.00,,,0.00,WUHU216HW,2013-05-13 02:11:00,
2013-05-12 22:16:00,72.0,12.5,29.96,North,0,0.0,0.0,1,0.00,,,0.00,WUHU216HW,2013-05-13 02:16:00,
2013-05-12 22:21:00,72.2,12.7,29.96,North,0,0.0,0.0,1,0.00,,,0.00,WUHU216HW,2013-05-13 02:21:00,
2013-05-12 22:26:00,72.2,12.7,29.96,North,0,0.0,0.0,1,0.00,,,0.00,WUHU216HW,2013-05-13 02:26:00,
2013-05-12 22:31:00,72.0,12.5,29.96,North,0,0.0,0.0,1,0.00,,,0.00,WUHU216HW,2013-05-13 02:31:00,
2013-05-12 22:36:00,72.0,12.5,29.96,North,0,0.0,0.0,1,0.00,,,0.00,WUHU216HW,2013-05-13 02:36:00,
2013-05-12 22:41:00,72.0,12.5,29.96,North,0,0.0,0.0,1,0.00,,,0.00,WUHU216HW,2013-05-13 02:41:00,
2013-05-12 22:46:00,71.8,12.4,29.96,North,0,0.0,0.0,1,0.00,,,0.00,WUHU216HW,2013-05-13 02:46:00,
2013-05-12 22:52:00,71.5,12.1,29.96,North,0,0.0,0.0,1,0.00,,,0.00,WUHU216HW,2013-05-13 02:52:00,
2013-05-12 22:57:00,71.6,12.2,29.96,North,0,0.0,0.0,1,0.00,,,0.00,WUHU216HW,2013-05-13 02:57:00,
2013-05-12 23:02:00,72.2,12.7,29.97,North,0,0.0,0.0,1,0.00,,,0.00,WUHU216HW,2013-05-13 03:02:00,
2013-05-12 23:07:00,71.6,12.2,29.97,North,0,0.0,0.0,1,0.00,,,0.00,WUHU216HW,2013-05-13 03:07:00,
2013-05-12 23:12:00,70.2,11.1,29.96,North,0,0.0,0.0,7,0.00,,,0.00,WUHU216HW,2013-05-13 03:12:00,
2013-05-12 23:17:00,70.0,32.4,29.97,North,0,0.0,0.0,25,0.00,,,0.00,WUHU216HW,2013-05-13 03:17:00,
2013-05-12 23:22:00,70.2,33.4,29.97,North,0,0.0,0.0,26,0.00,,,0.00,WUHU216HW,2013-05-13 03:22:00,
2013-05-12 23:27:00,70.0,31.1,29.97,North,0,0.0,0.0,24,0.00,,,0.00,WUHU216HW,2013-05-13 03:27:00,
2013-05-12 23:33:00,69.8,25.4,29.97,North,0,0.0,0.0,19,0.00,,,0.00,WUHU216HW,2013-05-13 03:33:00,
2013-05-12 23:38:00,69.5,27.7,29.97,North,0,0.0,0.0,21,0.00,,,0.00,WUHU216HW,2013-05-13 03:38:00,
2013-05-12 23:43:00,69.3,30.6,29.97,North,0,0.0,0.0,24,0.00,,,0.00,WUHU216HW,2013-05-13 03:43:00,
2013-05-12 23:48:00,68.9,35.3,29.97,North,0,0.0,0.0,29,0.00,,,0.00,WUHU216HW,2013-05-13 03:48:00,
2013-05-12 23:53:00,68.8,37.6,29.97,North,0,0.0,0.0,32,0.00,,,0.00,WUHU216HW,2013-05-13 03:53:00,
2013-05-12 23:58:00,68.8,44.1,29.97,North,0,0.0,0.0,41,0.00,,,0.00,WUHU216HW,2013-05-13 03:58:00,